Asherton, Texas
Current Conditions -  °F | °C
As of 6:15 PM on Thursday 18 Dec 2014 (Local Time) from KCZT Reporting Station
Haze Haze  
Wind Chill: 63°   Ceiling: 4300
Heat Index: 63°   Visibility: 5mi
Dew Point: 61°   Wind: 0mph
Humidity: 94%   Direction: NA
Pressure: 29.98"   Gusts: NA
Location:  28.44°N, 99.76°W
Report Text: KCZT 190015Z AUTO 00000KT 5SM BR OVC043 17/16 A2998 RMK AO2
Loading
Personal Weather Stations






























Interactive Weather Map New forecast layout! Learn more

10-Day Weather Forecast

Advertisements
Track Severe Weather on mobile